Time;durP1;ratioP1;P1;durP2;ratioP2;P2;SDS_P1;SDS_P2;PMS_P1;PMS_P2;Temp;Humidity;BMP_temperature;BMP_pressure;BME280_temperature;BME280_humidity;BME280_pressure;Samples;Min_cycle;Max_cycle;Signal;HPM_P1;HPM_P2
2022/06/17 00:01:43;;;;;;;21.83;13.52;;;;;;;18.44;79.08;95156.34;5075326;28;20174;-81
2022/06/17 00:04:08;;;;;;;21.98;13.20;;;;;;;18.42;79.11;95157.69;5075229;28;20170;-80
2022/06/17 00:06:42;;;;;;;24.60;14.40;;;;;;;18.38;79.37;95161.88;5075478;28;20190;-80
2022/06/17 00:09:10;;;;;;;22.58;13.98;;;;;;;18.18;79.72;95135.03;5076105;28;20665;-81
2022/06/17 00:11:37;;;;;;;21.80;13.30;;;;;;;18.29;79.29;95160.72;5075655;28;20178;-81
2022/06/17 00:14:18;;;;;;;22.85;13.80;;;;;;;18.26;80.08;95155.88;5075708;28;20166;-81
2022/06/17 00:16:44;;;;;;;21.27;14.13;;;;;;;18.08;80.42;95128.53;5059171;28;20162;-81
2022/06/17 00:19:10;;;;;;;24.15;14.60;;;;;;;18.20;80.59;95160.38;5075893;28;20753;-80
2022/06/17 00:21:39;;;;;;;26.35;15.13;;;;;;;18.18;80.43;95169.66;5075420;28;20234;-80
2022/06/17 00:24:18;;;;;;;20.40;14.55;;;;;;;18.14;80.64;95171.22;5075360;28;20212;-80
2022/06/17 00:26:44;;;;;;;22.88;14.82;;;;;;;18.00;80.63;95155.63;5075176;28;20196;-81
2022/06/17 00:29:15;;;;;;;26.00;15.00;;;;;;;17.96;80.96;95156.38;5075254;28;20245;-81
2022/06/17 00:31:41;;;;;;;22.35;14.45;;;;;;;17.85;81.22;95143.97;5075138;28;20151;-80
2022/06/17 00:34:07;;;;;;;21.17;14.55;;;;;;;17.86;81.43;95158.91;5075024;28;20205;-80
2022/06/17 00:36:33;;;;;;;23.42;13.05;;;;;;;17.73;81.63;95157.41;5074655;28;20178;-81
2022/06/17 00:38:59;;;;;;;21.75;14.02;;;;;;;17.58;81.81;95134.03;5074876;28;20166;-82
2022/06/17 00:41:29;;;;;;;22.65;13.57;;;;;;;17.72;81.59;95169.16;5074602;28;20178;-81
2022/06/17 00:43:55;;;;;;;18.38;13.02;;;;;;;17.53;82.36;95139.31;5074732;28;20319;-81
2022/06/17 00:46:36;;;;;;;18.52;13.13;;;;;;;17.68;81.82;95146.72;5074503;28;20273;-81
2022/06/17 00:49:11;;;;;;;24.48;12.85;;;;;;;17.67;81.47;95156.56;5074515;28;20174;-81
2022/06/17 00:52:12;;;;;;;23.17;13.85;;;;;;;17.30;81.81;95099.59;5074419;28;20190;-81
2022/06/17 00:54:45;;;;;;;23.20;13.27;;;;;;;17.67;81.82;95155.75;5057015;28;20660;-81
2022/06/17 00:57:18;;;;;;;21.13;12.82;;;;;;;17.59;81.67;95140.19;5056216;28;20174;-81
2022/06/17 01:00:00;;;;;;;23.88;12.80;;;;;;;17.26;81.99;95091.31;5074142;28;20680;-81
2022/06/17 01:02:27;;;;;;;23.73;13.38;;;;;;;17.30;82.11;95102.25;5066386;28;20637;-81
2022/06/17 01:05:03;;;;;;;22.02;13.68;;;;;;;17.52;81.98;95153.69;5073435;28;20187;-81
2022/06/17 01:07:45;;;;;;;25.20;13.48;;;;;;;17.34;81.80;95127.34;5074609;28;20182;-81
2022/06/17 01:10:13;;;;;;;19.80;13.77;;;;;;;17.50;82.31;95142.47;5074467;28;20196;-81
2022/06/17 01:12:50;;;;;;;20.92;13.07;;;;;;;17.42;82.20;95137.56;5074362;28;20234;-81
2022/06/17 01:15:23;;;;;;;19.92;11.98;;;;;;;17.31;81.99;95117.19;5074679;28;20182;-81
2022/06/17 01:17:49;;;;;;;20.77;12.75;;;;;;;17.48;82.09;95139.22;5075196;28;20224;-81
2022/06/17 01:20:17;;;;;;;16.90;12.50;;;;;;;17.41;82.13;95135.16;5056246;28;20166;-80
2022/06/17 01:22:43;;;;;;;15.65;11.65;;;;;;;17.48;82.32;95139.22;5074198;28;20167;-81
2022/06/17 01:25:13;;;;;;;24.05;12.27;;;;;;;17.21;82.24;95103.75;5074564;28;20183;-81
2022/06/17 01:27:42;;;;;;;15.02;11.13;;;;;;;17.36;82.51;95135.91;5074222;28;20178;-81
2022/06/17 01:30:30;;;;;;;18.90;12.88;;;;;;;16.93;82.48;95065.59;5074048;28;20714;-81
2022/06/17 01:33:00;;;;;;;18.25;12.57;;;;;;;17.10;82.63;95105.47;5073134;28;20214;-81
2022/06/17 01:35:30;;;;;;;24.30;14.70;;;;;;;17.23;83.05;95118.41;5073937;28;20171;-81
2022/06/17 01:37:57;;;;;;;23.60;14.25;;;;;;;16.87;83.46;95082.53;5055668;28;20240;-81
2022/06/17 01:40:27;;;;;;;31.20;18.17;;;;;;;17.07;84.00;95116.59;5073747;28;20174;-80
2022/06/17 01:42:55;;;;;;;40.63;24.35;;;;;;;17.10;84.14;95117.97;5073496;28;20167;-81
2022/06/17 01:45:20;;;;;;;32.78;19.17;;;;;;;17.10;83.86;95110.78;5073477;28;20186;-80
2022/06/17 01:47:46;;;;;;;35.25;18.52;;;;;;;17.05;83.44;95102.72;5073700;28;20228;-81
2022/06/17 01:50:17;;;;;;;30.00;18.27;;;;;;;17.09;83.32;95117.16;5073827;28;20158;-81
2022/06/17 01:52:53;;;;;;;32.38;20.77;;;;;;;17.10;83.65;95117.97;5073866;28;20158;-80
2022/06/17 01:55:23;;;;;;;32.00;18.98;;;;;;;17.09;83.60;95111.03;5073435;28;20249;-81
2022/06/17 01:57:56;;;;;;;34.67;19.15;;;;;;;16.92;83.37;95090.59;5073105;28;20220;-81
2022/06/17 02:00:25;;;;;;;36.55;20.48;;;;;;;17.01;83.46;95119.44;5073185;28;20167;-81
2022/06/17 02:02:56;;;;;;;31.92;18.73;;;;;;;16.60;83.49;95053.13;5073011;28;20713;-80
2022/06/17 02:05:24;;;;;;;39.00;19.15;;;;;;;16.74;83.97;95112.13;5072995;28;20204;-81
2022/06/17 02:07:54;;;;;;;35.78;18.48;;;;;;;16.78;84.30;95128.38;5073067;28;20167;-81
2022/06/17 02:10:26;;;;;;;28.58;17.90;;;;;;;16.74;84.46;95130.72;5073052;28;20170;-81
2022/06/17 02:12:52;;;;;;;32.22;19.20;;;;;;;16.73;84.67;95134.44;5072488;28;20254;-81
2022/06/17 02:15:18;;;;;;;36.30;22.05;;;;;;;16.78;84.59;95136.34;5072456;28;20174;-81
2022/06/17 02:17:46;;;;;;;37.95;19.30;;;;;;;16.69;84.58;95143.16;5073151;28;20170;-82
2022/06/17 02:20:13;;;;;;;28.75;17.52;;;;;;;16.57;84.41;95113.94;5073253;28;20186;-82
2022/06/17 02:22:39;;;;;;;31.83;16.92;;;;;;;16.65;84.37;95137.50;5073227;28;20177;-81
2022/06/17 02:28:20;;;;;;;29.73;18.95;;;;;;;16.39;84.40;95096.38;5074027;28;20170;-81
2022/06/17 02:30:48;;;;;;;35.50;20.33;;;;;;;16.68;84.75;95134.38;5073395;28;20161;-81
2022/06/17 02:33:15;;;;;;;22.55;14.43;;;;;;;16.60;84.79;95132.06;5073138;28;20169;-81
2022/06/17 02:36:06;;;;;;;44.45;26.80;;;;;;;16.60;84.98;95126.75;5072605;28;20232;-81
2022/06/17 02:38:34;;;;;;;29.00;15.50;;;;;;;16.59;85.13;95125.16;5073051;28;20224;-82
2022/06/17 02:41:10;;;;;;;25.95;16.25;;;;;;;16.40;84.68;95102.50;5072682;28;20533;-81
2022/06/17 02:43:42;;;;;;;26.38;17.25;;;;;;;16.51;85.07;95125.53;5072852;28;20193;-82
2022/06/17 02:46:19;;;;;;;39.13;22.27;;;;;;;16.59;85.01;95133.94;5072520;28;20190;-81
2022/06/17 02:48:52;;;;;;;29.58;19.30;;;;;;;16.59;85.13;95141.91;5072879;28;20193;-81
2022/06/17 02:51:18;;;;;;;33.95;21.63;;;;;;;16.13;84.51;95059.81;5072704;28;20163;-81
2022/06/17 02:53:44;;;;;;;31.42;20.13;;;;;;;16.59;84.52;95130.47;5072205;28;20558;-81
2022/06/17 02:56:29;;;;;;;21.85;14.52;;;;;;;16.44;84.31;95111.59;5072161;28;20657;-81
2022/06/17 02:59:34;;;;;;;23.70;14.63;;;;;;;16.61;84.20;95131.03;5069238;28;20680;-81
2022/06/17 03:02:17;;;;;;;25.02;13.77;;;;;;;16.52;83.94;95127.94;5021039;28;20674;-81
2022/06/17 03:04:45;;;;;;;24.90;16.10;;;;;;;16.56;84.34;95134.41;5063699;28;20202;-81
2022/06/17 03:07:17;;;;;;;26.13;14.40;;;;;;;16.48;84.33;95115.38;5072104;28;20178;-81
2022/06/17 03:09:43;;;;;;;18.48;13.25;;;;;;;16.36;84.43;95098.69;5072309;28;20174;-81
2022/06/17 03:12:28;;;;;;;20.02;13.88;;;;;;;16.52;84.34;95119.16;5053958;28;20565;-82
2022/06/17 03:15:10;;;;;;;31.40;18.92;;;;;;;16.56;84.83;95128.28;5071890;28;21029;-81
2022/06/17 03:17:41;;;;;;;25.50;13.70;;;;;;;16.61;84.46;95136.34;5068288;28;20174;-80
2022/06/17 03:20:13;;;;;;;31.02;20.42;;;;;;;16.64;84.25;95135.06;5071750;28;20174;-80
2022/06/17 03:22:39;;;;;;;25.48;15.55;;;;;;;16.45;84.22;95108.69;5072260;28;20174;-80
2022/06/17 03:25:11;;;;;;;31.33;17.77;;;;;;;16.76;83.88;95144.59;5072490;28;20209;-81
2022/06/17 03:27:52;;;;;;;26.60;13.98;;;;;;;16.86;84.14;95144.75;5074991;28;20170;-81
2022/06/17 03:30:24;;;;;;;23.33;13.82;;;;;;;16.98;83.88;95137.47;5089447;28;20566;-81
2022/06/17 03:33:09;;;;;;;21.10;11.73;;;;;;;17.12;83.35;95140.63;5077955;28;20166;-80
2022/06/17 03:35:35;;;;;;;21.85;12.35;;;;;;;17.21;83.08;95136.47;5083832;28;20170;-81
2022/06/17 03:38:24;;;;;;;21.05;12.35;;;;;;;17.08;82.58;95094.25;5087109;28;20200;-80
2022/06/17 03:40:54;;;;;;;25.85;11.52;;;;;;;17.52;81.37;95160.84;5078073;28;20177;-80
2022/06/17 03:43:37;;;;;;;20.27;11.60;;;;;;;17.60;80.48;95153.25;5075368;28;20174;-80
2022/06/17 03:46:06;;;;;;;16.52;11.05;;;;;;;17.43;81.08;95114.41;5075600;28;20219;-81
2022/06/17 03:48:44;;;;;;;15.13;10.38;;;;;;;17.89;80.88;95158.44;5075726;28;20182;-81
2022/06/17 03:51:15;;;;;;;19.80;10.27;;;;;;;17.75;79.88;95111.91;5075766;28;20163;-81
2022/06/17 03:53:42;;;;;;;13.43;9.48;;;;;;;17.99;80.06;95126.56;5075771;28;20162;-80
2022/06/17 03:56:24;;;;;;;16.25;10.23;;;;;;;18.16;79.02;95153.13;5075598;28;20150;-81
2022/06/17 03:58:51;;;;;;;22.05;9.68;;;;;;;18.24;78.62;95152.69;5075664;28;20544;-81
2022/06/17 04:01:30;;;;;;;20.70;9.68;;;;;;;18.33;77.84;95141.34;5075356;28;20192;-80
2022/06/17 04:03:58;;;;;;;18.98;10.20;;;;;;;18.61;77.33;95182.13;5075484;28;20650;-78
2022/06/17 04:06:29;;;;;;;14.13;10.05;;;;;;;18.66;77.02;95167.00;5075433;28;20186;-79
2022/06/17 04:09:01;;;;;;;19.92;11.20;;;;;;;18.83;76.44;95175.69;5077314;28;20218;-79
2022/06/17 04:11:30;;;;;;;15.55;8.57;;;;;;;18.96;75.70;95178.97;5074979;28;20182;-79
2022/06/17 04:14:00;;;;;;;15.93;9.70;;;;;;;19.10;74.93;95178.28;5068493;28;20301;-79
2022/06/17 04:16:39;;;;;;;14.32;9.52;;;;;;;19.13;74.46;95182.31;5057233;28;20166;-79
2022/06/17 04:19:27;;;;;;;15.57;10.85;;;;;;;19.35;74.46;95192.88;5074680;28;20234;-79
2022/06/17 04:21:59;;;;;;;15.57;9.98;;;;;;;19.53;73.78;95187.97;5074920;28;20174;-79
2022/06/17 04:24:27;;;;;;;20.65;9.40;;;;;;;19.59;72.86;95188.78;5074530;28;20177;-78
2022/06/17 04:27:00;;;;;;;19.40;9.25;;;;;;;19.67;72.28;95182.94;5075189;28;20190;-79
2022/06/17 04:29:34;;;;;;;17.33;9.48;;;;;;;19.89;71.56;95188.16;5074878;28;20253;-79
2022/06/17 04:32:06;;;;;;;18.70;10.25;;;;;;;20.07;71.40;95195.69;5075371;28;20197;-79
2022/06/17 04:34:31;;;;;;;15.75;9.48;;;;;;;20.25;70.89;95189.88;5074965;28;20178;-79
2022/06/17 04:37:04;;;;;;;17.20;8.25;;;;;;;20.46;69.37;95188.09;5074450;28;20614;-79
2022/06/17 04:39:35;;;;;;;13.30;9.38;;;;;;;20.67;69.79;95192.41;5075082;28;20166;-79
2022/06/17 04:42:06;;;;;;;13.07;7.90;;;;;;;20.85;68.08;95192.97;5074017;28;20166;-79
2022/06/17 04:44:32;;;;;;;16.42;8.93;;;;;;;20.97;68.14;95188.16;5074463;28;20262;-79
2022/06/17 04:47:11;;;;;;;24.42;8.60;;;;;;;21.25;68.27;95193.00;5074723;28;20182;-79
2022/06/17 04:49:43;;;;;;;18.55;8.38;;;;;;;21.53;68.03;95197.00;5074609;28;20540;-79
2022/06/17 04:52:34;;;;;;;12.88;7.43;;;;;;;21.78;66.39;95194.25;5077638;28;20559;-80
2022/06/17 04:55:03;;;;;;;13.23;7.90;;;;;;;22.03;64.55;95201.47;5072181;28;20258;-80
2022/06/17 04:57:29;;;;;;;15.80;7.80;;;;;;;22.28;64.07;95197.06;5069683;28;20240;-80
2022/06/17 04:59:58;;;;;;;20.27;8.93;;;;;;;22.60;63.17;95189.38;5070429;28;20205;-80
2022/06/17 05:02:28;;;;;;;12.82;7.65;;;;;;;22.81;62.02;95195.44;5064816;28;20217;-80
2022/06/17 05:04:58;;;;;;;11.52;8.13;;;;;;;23.00;61.79;95196.38;5065339;28;20199;-80
2022/06/17 05:07:26;;;;;;;12.15;7.28;;;;;;;23.20;59.32;95196.22;5068584;28;20182;-80
2022/06/17 05:09:56;;;;;;;12.25;7.95;;;;;;;23.44;59.84;95198.94;5070642;28;20186;-80
2022/06/17 05:12:44;;;;;;;10.38;7.75;;;;;;;23.89;58.12;95188.84;5073906;28;20218;-80
2022/06/17 05:15:21;;;;;;;14.45;7.43;;;;;;;24.23;56.31;95189.56;5070371;28;20167;-80
2022/06/17 05:17:47;;;;;;;13.50;7.88;;;;;;;24.00;56.63;95174.22;5069912;28;20262;-80
2022/06/17 05:20:22;;;;;;;8.57;7.22;;;;;;;24.08;56.87;95178.97;5071767;28;20253;-80
2022/06/17 05:22:54;;;;;;;11.30;7.82;;;;;;;24.48;58.60;95184.94;5067110;28;20178;-80
2022/06/17 05:25:29;;;;;;;16.08;9.60;;;;;;;25.13;57.10;95192.09;5073651;28;20681;-80
2022/06/17 05:27:55;;;;;;;14.73;8.02;;;;;;;25.69;54.18;95183.06;5072896;28;20169;-80
2022/06/17 05:30:21;;;;;;;14.80;7.72;;;;;;;25.93;53.73;95164.81;5068956;28;20220;-79
2022/06/17 05:32:50;;;;;;;9.50;6.30;;;;;;;26.53;51.55;95185.50;5073742;28;20202;-79
2022/06/17 05:35:16;;;;;;;14.63;8.93;;;;;;;26.94;49.95;95185.41;5074339;28;20231;-79
2022/06/17 05:37:41;;;;;;;9.77;6.45;;;;;;;27.26;49.71;95168.94;5055946;28;20182;-79
2022/06/17 05:40:08;;;;;;;11.90;5.80;;;;;;;27.70;48.98;95173.53;5074022;28;20918;-79
2022/06/17 05:42:35;;;;;;;27.55;17.17;;;;;;;27.90;47.95;95155.94;5055857;28;20185;-80
2022/06/17 05:45:00;;;;;;;17.95;11.82;;;;;;;28.38;47.88;95169.50;5073604;28;20680;-80
2022/06/17 05:47:26;;;;;;;12.63;7.35;;;;;;;28.74;46.87;95163.81;5065958;28;20182;-80
2022/06/17 05:49:51;;;;;;;8.43;5.70;;;;;;;28.81;43.87;95172.31;5067528;28;20181;-79
2022/06/17 05:52:18;;;;;;;10.43;6.32;;;;;;;28.20;43.84;95145.38;5069996;28;20681;-80
2022/06/17 05:54:44;;;;;;;21.63;6.45;;;;;;;27.45;45.70;95152.53;5072810;28;20561;-79
2022/06/17 05:57:09;;;;;;;9.38;6.25;;;;;;;27.19;46.80;95157.78;5072937;28;20178;-79
2022/06/17 05:59:35;;;;;;;13.80;6.07;;;;;;;26.78;47.55;95122.78;5073445;28;20556;-79
2022/06/17 06:02:00;;;;;;;12.80;6.55;;;;;;;27.22;48.14;95165.28;5073146;28;20170;-80
2022/06/17 06:04:26;;;;;;;10.80;6.32;;;;;;;26.93;46.79;95163.00;5073254;28;20584;-79
2022/06/17 06:06:52;;;;;;;11.30;6.85;;;;;;;26.60;48.39;95156.97;5072490;28;20225;-79
2022/06/17 06:09:17;;;;;;;12.65;6.15;;;;;;;26.50;50.29;95159.09;5072772;28;20255;-79
2022/06/17 06:11:43;;;;;;;8.68;5.57;;;;;;;26.60;50.54;95146.16;5072139;28;20621;-79
2022/06/17 06:14:08;;;;;;;10.55;6.03;;;;;;;26.43;48.33;95137.91;5071745;28;20218;-79
2022/06/17 06:16:34;;;;;;;11.60;5.65;;;;;;;26.72;51.50;95158.34;5071999;28;20188;-79
2022/06/17 06:19:00;;;;;;;7.88;5.55;;;;;;;27.03;50.09;95153.84;5072108;28;20180;-79
2022/06/17 06:21:26;;;;;;;13.55;6.70;;;;;;;27.33;48.84;95157.72;5072001;28;20171;-79
2022/06/17 06:23:54;;;;;;;13.32;8.13;;;;;;;27.25;46.90;95150.31;5072363;28;20680;-80
2022/06/17 06:26:21;;;;;;;10.25;6.22;;;;;;;27.29;49.95;95156.72;5072341;28;20187;-79
2022/06/17 06:28:47;;;;;;;15.43;6.57;;;;;;;27.17;47.31;95146.47;5072430;28;20198;-82
2022/06/17 06:31:27;;;;;;;10.32;6.03;;;;;;;26.98;48.13;95152.03;5072121;28;20253;-81
2022/06/17 06:33:53;;;;;;;8.38;4.90;;;;;;;26.75;47.43;95106.38;5054474;28;20170;-82
2022/06/17 06:36:18;;;;;;;10.45;5.13;;;;;;;26.95;47.03;95149.97;5054561;28;20197;-82
2022/06/17 06:38:44;;;;;;;13.00;5.95;;;;;;;26.72;47.46;95124.03;5073343;28;20189;-82
2022/06/17 06:41:09;;;;;;;7.90;5.22;;;;;;;26.53;46.82;95115.28;5073323;28;20158;-82
2022/06/17 06:43:35;;;;;;;11.82;5.95;;;;;;;26.15;48.03;95076.91;5072629;28;20737;-82
2022/06/17 06:46:10;;;;;;;13.73;8.50;;;;;;;26.63;48.62;95148.25;5072586;28;20600;-82
2022/06/17 06:48:36;;;;;;;14.70;5.80;;;;;;;26.75;50.31;95133.41;5072849;28;20151;-80
2022/06/17 06:51:02;;;;;;;8.05;4.28;;;;;;;26.92;47.85;95150.56;5072896;28;20259;-81
2022/06/17 06:53:27;;;;;;;10.43;4.78;;;;;;;26.86;48.86;95118.56;5072972;28;20165;-81
2022/06/17 06:55:53;;;;;;;8.50;5.07;;;;;;;27.23;49.92;95139.84;5072735;28;20150;-82
2022/06/17 06:58:21;;;;;;;8.75;5.15;;;;;;;27.47;47.93;95136.78;5072524;28;20259;-81
2022/06/17 07:00:50;;;;;;;13.65;5.35;;;;;;;27.67;48.52;95144.41;5054184;28;20531;-82
2022/06/17 07:03:17;;;;;;;7.90;3.90;;;;;;;27.59;46.33;95118.09;5054068;28;20174;-82
2022/06/17 07:05:46;;;;;;;7.72;3.95;;;;;;;27.43;44.75;95124.97;5069514;28;20190;-82
2022/06/17 07:08:13;;;;;;;13.43;4.47;;;;;;;27.15;45.14;95110.03;5069046;28;20249;-81
2022/06/17 07:10:39;;;;;;;7.43;3.72;;;;;;;27.40;48.90;95137.22;5071776;28;20174;-82
2022/06/17 07:13:08;;;;;;;8.57;4.28;;;;;;;27.70;50.10;95138.34;5071424;28;20218;-82
2022/06/17 07:15:34;;;;;;;8.38;3.42;;;;;;;28.04;48.30;95131.47;5071622;28;20219;-83
2022/06/17 07:18:02;;;;;;;7.18;4.15;;;;;;;28.22;47.26;95141.25;5071720;28;20253;-83
2022/06/17 07:20:36;;;;;;;11.13;3.75;;;;;;;28.44;45.97;95133.03;5053281;28;20178;-83
2022/06/17 07:23:04;;;;;;;7.00;3.90;;;;;;;28.57;45.50;95117.75;5071868;28;20937;-82
2022/06/17 07:25:29;;;;;;;8.55;4.07;;;;;;;29.02;45.23;95141.84;5071505;28;20609;-81
2022/06/17 07:27:55;;;;;;;5.47;4.18;;;;;;;28.57;42.66;95090.63;5071540;28;20159;-83
2022/06/17 07:30:24;;;;;;;13.15;4.35;;;;;;;28.39;44.93;95086.31;5071474;28;20633;-83
2022/06/17 07:32:49;;;;;;;7.78;3.78;;;;;;;28.81;46.37;95128.13;5071453;28;20178;-82
2022/06/17 07:35:15;;;;;;;8.38;3.80;;;;;;;29.06;45.99;95130.03;5071332;28;20181;-82
2022/06/17 07:40:28;;;;;;;15.00;4.22;;;;;;;29.34;45.14;95103.34;5062783;28;20177;-84
2022/06/17 07:42:55;;;;;;;7.88;4.13;;;;;;;29.51;42.82;95107.94;5071128;28;20163;-82
2022/06/17 07:45:23;;;;;;;7.43;4.38;;;;;;;29.41;42.92;95097.44;5071173;28;20191;-83
2022/06/17 07:47:49;;;;;;;5.18;3.63;;;;;;;29.27;46.02;95119.31;5071522;28;20190;-81
2022/06/17 07:50:21;;;;;;;13.23;5.20;;;;;;;29.35;45.53;95123.94;5071355;28;20159;-82
2022/06/17 07:52:47;;;;;;;7.95;4.40;;;;;;;29.06;43.66;95083.94;5072133;28;20166;-81
2022/06/17 07:55:13;;;;;;;4.97;3.63;;;;;;;29.19;43.30;95114.72;5071888;28;20162;-82
2022/06/17 07:57:38;;;;;;;9.38;4.22;;;;;;;28.84;43.99;95113.94;5071657;28;20188;-81
2022/06/17 08:00:10;;;;;;;10.68;4.60;;;;;;;28.78;47.17;95110.63;5071622;28;20170;-81
2022/06/17 08:02:35;;;;;;;4.82;4.32;;;;;;;28.70;46.09;95111.38;5071687;28;20179;-82
2022/06/17 08:05:01;;;;;;;5.90;4.32;;;;;;;28.81;47.36;95107.25;5053443;28;20191;-81
2022/06/17 08:07:28;;;;;;;8.05;4.40;;;;;;;29.02;46.66;95107.41;5071645;28;20638;-81
2022/06/17 08:09:53;;;;;;;8.45;4.13;;;;;;;29.23;48.58;95102.88;5053285;28;20181;-80
2022/06/17 08:12:19;;;;;;;7.20;4.13;;;;;;;29.50;43.44;95104.44;5071824;28;20170;-80
2022/06/17 08:14:46;;;;;;;8.00;4.70;;;;;;;29.58;42.75;95109.03;5075442;28;20536;-80
2022/06/17 08:17:13;;;;;;;7.70;4.25;;;;;;;29.37;45.64;95100.03;5075114;28;20174;-80
2022/06/17 08:19:40;;;;;;;8.18;4.20;;;;;;;29.26;45.60;95107.66;5074968;28;20174;-79
2022/06/17 08:22:07;;;;;;;6.60;4.18;;;;;;;29.14;43.92;95094.00;5075136;28;20592;-80
2022/06/17 08:24:32;;;;;;;7.80;4.82;;;;;;;28.94;45.04;95083.81;5074927;28;20262;-80
2022/06/17 08:26:57;;;;;;;6.43;4.07;;;;;;;29.14;45.50;95088.56;5075018;28;20253;-80
2022/06/17 08:29:26;;;;;;;9.85;4.95;;;;;;;29.06;46.99;95081.22;5074607;28;20640;-80
2022/06/17 08:31:51;;;;;;;10.70;4.85;;;;;;;29.02;45.32;95058.59;5075209;28;20162;-80
2022/06/17 08:34:17;;;;;;;9.88;5.18;;;;;;;29.19;46.15;95093.00;5074987;28;20645;-80
2022/06/17 08:36:42;;;;;;;8.32;4.07;;;;;;;28.80;45.24;95027.03;5074817;28;20539;-80
2022/06/17 08:39:10;;;;;;;5.10;3.75;;;;;;;29.14;46.44;95082.34;5074563;28;20185;-80
2022/06/17 08:41:54;;;;;;;9.93;4.40;;;;;;;29.19;45.08;95084.88;5074544;28;20178;-81
2022/06/17 08:44:42;;;;;;;8.05;4.88;;;;;;;28.82;46.19;95083.66;5074634;28;20170;-80
2022/06/17 08:47:29;;;;;;;9.77;4.35;;;;;;;28.76;49.05;95072.19;5056040;28;20628;-80
2022/06/17 08:50:13;;;;;;;9.07;4.50;;;;;;;28.97;49.13;95076.94;5074232;28;20170;-80
2022/06/17 08:53:02;;;;;;;9.10;5.10;;;;;;;28.99;48.01;95077.41;5067037;28;20319;-79
2022/06/17 08:56:00;;;;;;;8.55;4.95;;;;;;;28.57;46.18;95063.53;5074912;28;20516;-80
2022/06/17 08:59:03;;;;;;;6.75;4.30;;;;;;;28.44;49.22;95069.94;5072471;28;20179;-80
2022/06/17 09:01:45;;;;;;;9.07;5.00;;;;;;;28.28;51.18;95042.50;5074680;28;20178;-82
2022/06/17 09:04:39;;;;;;;4.88;4.28;;;;;;;28.42;50.89;95053.19;5067809;28;20831;-80
2022/06/17 09:07:30;;;;;;;13.45;5.30;;;;;;;28.42;50.44;95047.78;5073942;28;20182;-80
2022/06/17 09:10:06;;;;;;;6.53;4.28;;;;;;;28.65;49.89;95081.72;5070138;28;20189;-80
2022/06/17 09:12:46;;;;;;;9.00;4.82;;;;;;;28.53;48.74;95036.31;5074304;28;20216;-80
2022/06/17 09:15:16;;;;;;;11.48;5.47;;;;;;;28.75;47.01;95080.59;5054164;28;20183;-80
2022/06/17 09:18:05;;;;;;;12.05;4.90;;;;;;;28.59;49.17;95083.00;5054112;28;20654;-80
2022/06/17 09:20:37;;;;;;;7.28;4.35;;;;;;;28.54;48.11;95058.78;5054201;28;20185;-80
2022/06/17 09:23:05;;;;;;;8.60;5.05;;;;;;;28.60;48.42;95072.97;5054148;28;20170;-81
2022/06/17 09:25:41;;;;;;;8.55;4.75;;;;;;;28.60;50.34;95073.75;5052779;28;20724;-79
2022/06/17 09:28:17;;;;;;;11.70;5.85;;;;;;;28.62;48.87;95076.16;5054203;28;20159;-80
2022/06/17 09:30:54;;;;;;;7.32;4.85;;;;;;;28.44;49.70;95064.50;5054201;28;20155;-81
2022/06/17 09:33:46;;;;;;;10.93;5.45;;;;;;;27.57;48.58;94995.06;5054058;28;20212;-80
2022/06/17 09:36:20;;;;;;;7.75;5.47;;;;;;;27.68;53.87;95020.72;5054105;28;20168;-79
2022/06/17 09:39:04;;;;;;;16.23;6.57;;;;;;;28.07;53.44;95063.16;5056176;28;20167;-80
2022/06/17 09:41:52;;;;;;;14.65;6.35;;;;;;;28.13;49.67;95056.47;5073503;28;20146;-80
2022/06/17 09:44:23;;;;;;;7.38;5.10;;;;;;;28.23;50.07;95058.09;5074558;28;20243;-80
2022/06/17 09:47:03;;;;;;;7.65;5.43;;;;;;;28.38;49.92;95054.94;5079287;28;20576;-79
2022/06/17 09:49:32;;;;;;;7.38;5.63;;;;;;;28.46;48.28;95056.84;5089775;28;20178;-80
2022/06/17 09:52:23;;;;;;;9.00;5.40;;;;;;;28.34;49.97;95049.38;5087854;28;20174;-79
2022/06/17 09:55:07;;;;;;;9.65;5.28;;;;;;;27.48;49.35;95053.72;5017359;28;20195;-79
2022/06/17 09:57:36;;;;;;;9.75;5.53;;;;;;;27.25;54.93;95056.47;5053488;28;20238;-79
2022/06/17 10:00:16;;;;;;;7.70;4.78;;;;;;;27.31;51.12;95041.72;5053551;28;20274;-80
2022/06/17 10:02:59;;;;;;;8.55;5.60;;;;;;;27.65;51.29;95057.31;5055784;28;20195;-78
2022/06/17 10:05:57;;;;;;;6.68;4.20;;;;;;;27.85;46.14;95057.88;5073291;28;20198;-79
2022/06/17 10:08:48;;;;;;;5.35;3.60;;;;;;;28.05;46.37;95057.25;5054349;28;20281;-78
2022/06/17 10:11:35;;;;;;;6.55;4.25;;;;;;;28.24;45.77;95057.81;5072839;28;20241;-78
2022/06/17 10:14:03;;;;;;;4.78;3.25;;;;;;;28.34;44.43;95057.50;5072691;28;20221;-82
2022/06/17 10:19:55;;;;;;;6.80;3.58;;;;;;;28.43;47.36;95061.00;5073076;28;20165;-82
2022/06/17 10:22:39;;;;;;;6.40;4.30;;;;;;;28.49;48.81;95058.94;5072554;28;20142;-82
2022/06/17 10:25:35;;;;;;;24.02;4.40;;;;;;;28.49;45.94;95058.94;5072488;28;20189;-83
2022/06/17 10:28:06;;;;;;;5.85;3.40;;;;;;;28.36;43.07;95051.75;5072750;28;20166;-83
2022/06/17 10:30:37;;;;;;;4.78;3.55;;;;;;;28.35;44.89;95044.75;5054594;28;20185;-83
2022/06/17 10:33:03;;;;;;;8.48;3.70;;;;;;;28.37;45.93;95042.50;5072767;28;20165;-83
2022/06/17 10:35:36;;;;;;;6.78;3.75;;;;;;;28.19;46.04;95016.53;5072166;28;20158;-83
2022/06/17 10:38:05;;;;;;;4.72;3.17;;;;;;;28.46;45.00;95049.50;5072356;28;20154;-83
2022/06/17 10:40:34;;;;;;;8.90;3.67;;;;;;;28.37;44.20;95042.50;5072450;28;20237;-83
2022/06/17 10:43:04;;;;;;;5.30;3.65;;;;;;;28.27;43.12;95045.53;5054475;28;20174;-83
2022/06/17 10:45:30;;;;;;;4.68;3.50;;;;;;;28.24;42.30;95040.75;5072289;28;20262;-83
2022/06/17 10:48:21;;;;;;;4.07;3.30;;;;;;;28.23;43.45;95052.69;5072584;28;20162;-83
2022/06/17 10:50:47;;;;;;;5.18;3.05;;;;;;;27.93;39.85;95001.03;5051254;28;20244;-83
2022/06/17 10:53:20;;;;;;;52.30;6.18;;;;;;;28.27;43.31;95037.41;5072425;28;20158;-83
2022/06/17 10:55:49;;;;;;;53.78;8.57;;;;;;;28.44;40.84;95059.09;5072188;28;20151;-83
2022/06/17 10:58:21;;;;;;;55.00;7.40;;;;;;;28.47;39.95;95042.19;5072132;28;20170;-83
2022/06/17 11:01:00;;;;;;;68.75;9.38;;;;;;;28.48;40.48;95046.50;5054395;28;20246;-83
2022/06/17 11:03:32;;;;;;;82.78;10.23;;;;;;;28.44;39.65;95040.13;5072334;28;20190;-83
2022/06/17 11:06:04;;;;;;;53.72;9.27;;;;;;;28.56;43.02;95051.09;5072108;28;20247;-83
2022/06/17 11:08:48;;;;;;;71.60;11.57;;;;;;;28.38;46.28;95054.94;5072344;28;20257;-83
2022/06/17 11:14:01;;;;;;;13.75;5.28;;;;;;;27.98;47.73;95046.09;5072147;28;20295;-84
2022/06/17 11:16:31;;;;;;;6.55;5.50;;;;;;;28.02;50.52;95050.56;5072276;28;20159;-84
2022/06/17 11:19:06;;;;;;;7.93;5.15;;;;;;;27.98;48.52;95046.91;5053935;28;20166;-84
2022/06/17 11:21:37;;;;;;;8.15;5.45;;;;;;;27.62;47.40;95021.97;5071591;28;20178;-83
2022/06/17 11:24:04;;;;;;;11.20;5.22;;;;;;;27.43;48.54;95039.22;5054110;28;20166;-83
2022/06/17 11:26:33;;;;;;;7.93;4.88;;;;;;;27.17;49.45;95049.13;5072234;28;20182;-83
2022/06/17 11:29:34;;;;;;;4.75;4.35;;;;;;;26.91;49.89;95019.25;5072057;28;20637;-83
2022/06/17 11:32:12;;;;;;;5.93;4.78;;;;;;;27.03;49.90;95037.59;5053743;28;20556;-83
2022/06/17 11:34:48;;;;;;;7.20;4.90;;;;;;;26.91;47.00;95040.06;5071852;28;20154;-83
2022/06/17 11:37:19;;;;;;;5.07;4.50;;;;;;;26.76;48.84;95026.91;5053905;28;20211;-83
2022/06/17 11:39:44;;;;;;;6.53;4.97;;;;;;;26.45;50.36;95010.69;5071588;28;20189;-83
2022/06/17 11:42:24;;;;;;;6.60;4.97;;;;;;;26.42;50.36;95006.69;5071664;28;20170;-83
2022/06/17 11:44:58;;;;;;;8.50;5.38;;;;;;;26.44;50.47;95026.06;5054144;28;20178;-84
2022/06/17 11:47:26;;;;;;;10.40;4.75;;;;;;;26.41;50.60;95020.47;5072611;28;20571;-83
2022/06/17 11:49:55;;;;;;;5.53;4.68;;;;;;;26.36;50.83;95016.00;5075778;28;20363;-83
2022/06/17 11:52:35;;;;;;;7.15;5.35;;;;;;;26.40;48.78;95013.47;5057609;28;20172;-83
2022/06/17 11:55:02;;;;;;;11.07;4.50;;;;;;;26.27;50.21;94985.44;5075637;28;20165;-83
2022/06/17 11:57:31;;;;;;;13.10;6.47;;;;;;;26.36;49.39;94994.41;5057783;28;20181;-83
2022/06/17 11:59:59;;;;;;;5.07;4.38;;;;;;;26.56;48.45;95006.59;5075605;28;20204;-84